Terminal Aerodrome Forecast
Issued by NWS

Home | Current Version | Previous Version | Text Only | Print | Product List | Glossary On
Versions: 1 2 3 4 5 6 7 8 9 10 11 12 13 14
265
FTUS42 KGSP 290532
TAFAND
TAF
KAND 290532Z 2906/3006 26004KT P6SM FEW250
     FM291600 26007KT P6SM SCT040
     FM291800 25008KT P6SM BKN040 PROB30 2919/3001 4SM -TSRA
      OVC025CB
     FM300300 25004KT P6SM BKN090=

USA.gov is the U.S. government's official web portal to all federal, state and local government web resources and services.